sensor_id;sensor_type;location;lat;lon;timestamp;P1;durP1;ratioP1;P2;durP2;ratioP2
16862;SDS011;52193;48.216;-1.698;2024-01-10T00:01:43;28.48;;;26.17;;
16862;SDS011;52193;48.216;-1.698;2024-01-10T00:04:09;28.70;;;26.27;;
16862;SDS011;52193;48.216;-1.698;2024-01-10T00:06:37;28.73;;;26.42;;
16862;SDS011;52193;48.216;-1.698;2024-01-10T00:09:03;28.50;;;25.95;;
16862;SDS011;52193;48.216;-1.698;2024-01-10T00:11:32;29.58;;;27.17;;
16862;SDS011;52193;48.216;-1.698;2024-01-10T00:13:59;29.48;;;27.13;;
16862;SDS011;52193;48.216;-1.698;2024-01-10T00:16:28;29.45;;;27.05;;
16862;SDS011;52193;48.216;-1.698;2024-01-10T00:18:55;29.58;;;27.17;;
16862;SDS011;52193;48.216;-1.698;2024-01-10T00:21:22;29.10;;;26.65;;
16862;SDS011;52193;48.216;-1.698;2024-01-10T00:23:49;28.88;;;26.50;;
16862;SDS011;52193;48.216;-1.698;2024-01-10T00:26:15;29.70;;;27.17;;
16862;SDS011;52193;48.216;-1.698;2024-01-10T00:28:44;30.23;;;27.70;;
16862;SDS011;52193;48.216;-1.698;2024-01-10T00:31:11;29.25;;;26.85;;
16862;SDS011;52193;48.216;-1.698;2024-01-10T00:33:38;29.95;;;27.45;;
16862;SDS011;52193;48.216;-1.698;2024-01-10T00:36:05;29.77;;;27.25;;
16862;SDS011;52193;48.216;-1.698;2024-01-10T00:38:32;29.65;;;27.15;;
16862;SDS011;52193;48.216;-1.698;2024-01-10T00:40:59;29.73;;;27.33;;
16862;SDS011;52193;48.216;-1.698;2024-01-10T00:43:26;31.67;;;28.90;;
16862;SDS011;52193;48.216;-1.698;2024-01-10T00:45:54;30.23;;;27.63;;
16862;SDS011;52193;48.216;-1.698;2024-01-10T00:48:21;30.63;;;27.92;;
16862;SDS011;52193;48.216;-1.698;2024-01-10T00:50:48;30.23;;;27.75;;
16862;SDS011;52193;48.216;-1.698;2024-01-10T00:53:15;30.27;;;27.63;;
16862;SDS011;52193;48.216;-1.698;2024-01-10T00:55:42;30.15;;;27.48;;
16862;SDS011;52193;48.216;-1.698;2024-01-10T00:58:09;31.13;;;28.42;;
16862;SDS011;52193;48.216;-1.698;2024-01-10T01:00:36;30.73;;;28.05;;
16862;SDS011;52193;48.216;-1.698;2024-01-10T01:03:04;30.55;;;27.73;;
16862;SDS011;52193;48.216;-1.698;2024-01-10T01:05:32;31.90;;;29.08;;
16862;SDS011;52193;48.216;-1.698;2024-01-10T01:07:59;30.58;;;27.88;;
16862;SDS011;52193;48.216;-1.698;2024-01-10T01:10:26;31.52;;;28.73;;
16862;SDS011;52193;48.216;-1.698;2024-01-10T01:12:52;30.23;;;27.63;;
16862;SDS011;52193;48.216;-1.698;2024-01-10T01:15:20;31.00;;;28.23;;
16862;SDS011;52193;48.216;-1.698;2024-01-10T01:17:47;31.20;;;28.40;;
16862;SDS011;52193;48.216;-1.698;2024-01-10T01:20:15;29.70;;;27.00;;
16862;SDS011;52193;48.216;-1.698;2024-01-10T01:22:42;29.08;;;26.67;;
16862;SDS011;52193;48.216;-1.698;2024-01-10T01:25:09;28.92;;;26.52;;
16862;SDS011;52193;48.216;-1.698;2024-01-10T01:27:36;30.55;;;27.77;;
16862;SDS011;52193;48.216;-1.698;2024-01-10T01:30:03;29.42;;;26.88;;
16862;SDS011;52193;48.216;-1.698;2024-01-10T01:32:30;29.98;;;27.20;;
16862;SDS011;52193;48.216;-1.698;2024-01-10T01:34:57;29.75;;;27.25;;
16862;SDS011;52193;48.216;-1.698;2024-01-10T01:37:25;31.08;;;28.35;;
16862;SDS011;52193;48.216;-1.698;2024-01-10T01:39:52;30.17;;;27.58;;
16862;SDS011;52193;48.216;-1.698;2024-01-10T01:42:19;30.02;;;27.38;;
16862;SDS011;52193;48.216;-1.698;2024-01-10T01:44:46;31.65;;;28.83;;
16862;SDS011;52193;48.216;-1.698;2024-01-10T01:47:13;30.20;;;27.60;;
16862;SDS011;52193;48.216;-1.698;2024-01-10T01:49:40;32.00;;;29.10;;
16862;SDS011;52193;48.216;-1.698;2024-01-10T01:52:08;31.38;;;28.58;;
16862;SDS011;52193;48.216;-1.698;2024-01-10T01:54:37;32.72;;;29.63;;
16862;SDS011;52193;48.216;-1.698;2024-01-10T01:57:04;33.58;;;30.38;;
16862;SDS011;52193;48.216;-1.698;2024-01-10T01:59:31;35.47;;;32.10;;
16862;SDS011;52193;48.216;-1.698;2024-01-10T02:01:59;34.58;;;31.42;;
16862;SDS011;52193;48.216;-1.698;2024-01-10T02:04:29;33.75;;;30.63;;
16862;SDS011;52193;48.216;-1.698;2024-01-10T02:06:57;34.00;;;30.80;;
16862;SDS011;52193;48.216;-1.698;2024-01-10T02:09:24;34.58;;;31.38;;
16862;SDS011;52193;48.216;-1.698;2024-01-10T02:11:53;34.85;;;31.75;;
16862;SDS011;52193;48.216;-1.698;2024-01-10T02:14:20;34.42;;;31.20;;
16862;SDS011;52193;48.216;-1.698;2024-01-10T02:16:47;36.20;;;32.70;;
16862;SDS011;52193;48.216;-1.698;2024-01-10T02:19:18;35.22;;;31.98;;
16862;SDS011;52193;48.216;-1.698;2024-01-10T02:21:45;36.20;;;32.60;;
16862;SDS011;52193;48.216;-1.698;2024-01-10T02:24:12;34.75;;;31.50;;
16862;SDS011;52193;48.216;-1.698;2024-01-10T02:26:40;35.83;;;32.50;;
16862;SDS011;52193;48.216;-1.698;2024-01-10T02:29:08;36.55;;;33.10;;
16862;SDS011;52193;48.216;-1.698;2024-01-10T02:31:35;36.92;;;33.45;;
16862;SDS011;52193;48.216;-1.698;2024-01-10T02:34:01;35.78;;;32.47;;
16862;SDS011;52193;48.216;-1.698;2024-01-10T02:36:28;38.03;;;34.42;;
16862;SDS011;52193;48.216;-1.698;2024-01-10T02:38:55;36.88;;;33.42;;
16862;SDS011;52193;48.216;-1.698;2024-01-10T02:41:22;37.33;;;33.80;;
16862;SDS011;52193;48.216;-1.698;2024-01-10T02:43:50;35.50;;;32.20;;
16862;SDS011;52193;48.216;-1.698;2024-01-10T02:46:17;38.00;;;34.22;;
16862;SDS011;52193;48.216;-1.698;2024-01-10T02:48:47;35.85;;;32.55;;
16862;SDS011;52193;48.216;-1.698;2024-01-10T02:51:14;36.70;;;33.30;;
16862;SDS011;52193;48.216;-1.698;2024-01-10T02:53:41;35.22;;;32.10;;
16862;SDS011;52193;48.216;-1.698;2024-01-10T02:56:08;35.88;;;32.67;;
16862;SDS011;52193;48.216;-1.698;2024-01-10T02:58:35;36.90;;;33.30;;
16862;SDS011;52193;48.216;-1.698;2024-01-10T03:01:03;35.20;;;32.00;;
16862;SDS011;52193;48.216;-1.698;2024-01-10T03:03:30;35.25;;;32.00;;
16862;SDS011;52193;48.216;-1.698;2024-01-10T03:05:57;35.47;;;32.15;;
16862;SDS011;52193;48.216;-1.698;2024-01-10T03:08:24;34.88;;;31.67;;
16862;SDS011;52193;48.216;-1.698;2024-01-10T03:10:51;35.38;;;32.17;;
16862;SDS011;52193;48.216;-1.698;2024-01-10T03:13:18;34.33;;;31.30;;
16862;SDS011;52193;48.216;-1.698;2024-01-10T03:15:44;34.90;;;31.75;;
16862;SDS011;52193;48.216;-1.698;2024-01-10T03:18:13;34.05;;;30.92;;
16862;SDS011;52193;48.216;-1.698;2024-01-10T03:20:40;34.58;;;31.48;;
16862;SDS011;52193;48.216;-1.698;2024-01-10T03:23:07;34.70;;;31.45;;
16862;SDS011;52193;48.216;-1.698;2024-01-10T03:25:33;33.88;;;30.75;;
16862;SDS011;52193;48.216;-1.698;2024-01-10T03:28:00;33.47;;;30.55;;
16862;SDS011;52193;48.216;-1.698;2024-01-10T03:30:27;34.20;;;31.13;;
16862;SDS011;52193;48.216;-1.698;2024-01-10T03:32:54;33.83;;;30.80;;
16862;SDS011;52193;48.216;-1.698;2024-01-10T03:35:23;33.83;;;30.73;;
16862;SDS011;52193;48.216;-1.698;2024-01-10T03:37:49;34.45;;;31.55;;
16862;SDS011;52193;48.216;-1.698;2024-01-10T03:40:16;33.58;;;30.63;;
16862;SDS011;52193;48.216;-1.698;2024-01-10T03:42:43;32.95;;;30.15;;
16862;SDS011;52193;48.216;-1.698;2024-01-10T03:45:10;32.90;;;29.88;;
16862;SDS011;52193;48.216;-1.698;2024-01-10T03:47:37;33.15;;;30.15;;
16862;SDS011;52193;48.216;-1.698;2024-01-10T03:50:04;32.65;;;29.85;;
16862;SDS011;52193;48.216;-1.698;2024-01-10T03:52:34;33.35;;;30.45;;
16862;SDS011;52193;48.216;-1.698;2024-01-10T03:55:01;33.10;;;30.17;;
16862;SDS011;52193;48.216;-1.698;2024-01-10T03:57:28;33.53;;;30.63;;
16862;SDS011;52193;48.216;-1.698;2024-01-10T03:59:55;33.00;;;30.10;;
16862;SDS011;52193;48.216;-1.698;2024-01-10T04:02:22;34.22;;;31.27;;
16862;SDS011;52193;48.216;-1.698;2024-01-10T04:04:49;33.00;;;30.30;;
16862;SDS011;52193;48.216;-1.698;2024-01-10T04:07:16;32.67;;;29.83;;
16862;SDS011;52193;48.216;-1.698;2024-01-10T04:09:44;31.98;;;29.27;;
16862;SDS011;52193;48.216;-1.698;2024-01-10T04:12:11;32.65;;;29.77;;
16862;SDS011;52193;48.216;-1.698;2024-01-10T04:14:38;30.67;;;28.05;;
16862;SDS011;52193;48.216;-1.698;2024-01-10T04:17:05;31.63;;;29.05;;
16862;SDS011;52193;48.216;-1.698;2024-01-10T04:19:32;30.80;;;28.13;;
16862;SDS011;52193;48.216;-1.698;2024-01-10T04:21:59;30.55;;;27.95;;
16862;SDS011;52193;48.216;-1.698;2024-01-10T04:24:25;30.98;;;28.23;;
16862;SDS011;52193;48.216;-1.698;2024-01-10T04:26:54;29.58;;;27.15;;
16862;SDS011;52193;48.216;-1.698;2024-01-10T04:29:21;29.58;;;27.25;;
16862;SDS011;52193;48.216;-1.698;2024-01-10T04:31:48;30.75;;;28.20;;
16862;SDS011;52193;48.216;-1.698;2024-01-10T04:34:15;30.27;;;27.75;;
16862;SDS011;52193;48.216;-1.698;2024-01-10T04:36:43;31.30;;;28.63;;
16862;SDS011;52193;48.216;-1.698;2024-01-10T04:39:10;30.92;;;28.33;;
16862;SDS011;52193;48.216;-1.698;2024-01-10T04:41:36;30.05;;;27.65;;
16862;SDS011;52193;48.216;-1.698;2024-01-10T04:44:06;29.60;;;27.10;;
16862;SDS011;52193;48.216;-1.698;2024-01-10T04:46:33;30.33;;;27.83;;
16862;SDS011;52193;48.216;-1.698;2024-01-10T04:48:59;31.98;;;29.08;;
16862;SDS011;52193;48.216;-1.698;2024-01-10T04:51:26;30.52;;;27.95;;
16862;SDS011;52193;48.216;-1.698;2024-01-10T04:53:53;31.63;;;28.95;;
16862;SDS011;52193;48.216;-1.698;2024-01-10T04:56:20;30.58;;;27.88;;
16862;SDS011;52193;48.216;-1.698;2024-01-10T04:58:47;31.58;;;28.77;;
16862;SDS011;52193;48.216;-1.698;2024-01-10T05:01:15;31.15;;;28.35;;
16862;SDS011;52193;48.216;-1.698;2024-01-10T05:03:42;30.75;;;28.13;;
16862;SDS011;52193;48.216;-1.698;2024-01-10T05:06:09;31.98;;;29.17;;
16862;SDS011;52193;48.216;-1.698;2024-01-10T05:08:36;31.40;;;28.90;;
16862;SDS011;52193;48.216;-1.698;2024-01-10T05:11:03;30.42;;;27.92;;
16862;SDS011;52193;48.216;-1.698;2024-01-10T05:13:30;30.50;;;27.98;;
16862;SDS011;52193;48.216;-1.698;2024-01-10T05:15:57;30.15;;;27.65;;
16862;SDS011;52193;48.216;-1.698;2024-01-10T05:18:25;31.02;;;28.42;;
16862;SDS011;52193;48.216;-1.698;2024-01-10T05:20:52;31.60;;;28.85;;
16862;SDS011;52193;48.216;-1.698;2024-01-10T05:23:19;30.23;;;27.63;;
16862;SDS011;52193;48.216;-1.698;2024-01-10T05:25:46;30.73;;;28.13;;
16862;SDS011;52193;48.216;-1.698;2024-01-10T05:28:13;30.65;;;28.05;;
16862;SDS011;52193;48.216;-1.698;2024-01-10T05:30:40;31.20;;;28.48;;
16862;SDS011;52193;48.216;-1.698;2024-01-10T05:33:07;30.60;;;28.00;;
16862;SDS011;52193;48.216;-1.698;2024-01-10T05:35:37;30.58;;;28.05;;
16862;SDS011;52193;48.216;-1.698;2024-01-10T05:38:04;31.35;;;28.65;;
16862;SDS011;52193;48.216;-1.698;2024-01-10T05:40:32;30.85;;;28.25;;
16862;SDS011;52193;48.216;-1.698;2024-01-10T05:42:59;31.23;;;28.52;;
16862;SDS011;52193;48.216;-1.698;2024-01-10T05:45:25;30.23;;;27.70;;
16862;SDS011;52193;48.216;-1.698;2024-01-10T05:47:53;31.65;;;28.85;;
16862;SDS011;52193;48.216;-1.698;2024-01-10T05:50:20;31.02;;;28.42;;
16862;SDS011;52193;48.216;-1.698;2024-01-10T05:52:48;30.17;;;27.67;;
16862;SDS011;52193;48.216;-1.698;2024-01-10T05:55:15;31.92;;;29.15;;
16862;SDS011;52193;48.216;-1.698;2024-01-10T05:57:42;30.67;;;28.05;;
16862;SDS011;52193;48.216;-1.698;2024-01-10T06:00:09;32.67;;;29.85;;
16862;SDS011;52193;48.216;-1.698;2024-01-10T06:02:38;31.83;;;29.23;;
16862;SDS011;52193;48.216;-1.698;2024-01-10T06:05:05;31.85;;;29.00;;
16862;SDS011;52193;48.216;-1.698;2024-01-10T06:07:34;32.70;;;29.80;;
16862;SDS011;52193;48.216;-1.698;2024-01-10T06:10:02;30.75;;;28.15;;
16862;SDS011;52193;48.216;-1.698;2024-01-10T06:12:29;31.98;;;29.05;;
16862;SDS011;52193;48.216;-1.698;2024-01-10T06:14:56;31.88;;;29.13;;
16862;SDS011;52193;48.216;-1.698;2024-01-10T06:17:23;32.20;;;29.40;;
16862;SDS011;52193;48.216;-1.698;2024-01-10T06:19:50;32.67;;;29.77;;
16862;SDS011;52193;48.216;-1.698;2024-01-10T06:22:17;33.42;;;30.42;;
16862;SDS011;52193;48.216;-1.698;2024-01-10T06:24:50;32.80;;;29.88;;
16862;SDS011;52193;48.216;-1.698;2024-01-10T06:27:18;32.45;;;29.55;;
16862;SDS011;52193;48.216;-1.698;2024-01-10T06:29:45;31.70;;;28.83;;
16862;SDS011;52193;48.216;-1.698;2024-01-10T06:32:12;30.70;;;28.10;;
16862;SDS011;52193;48.216;-1.698;2024-01-10T06:34:39;29.63;;;27.05;;
16862;SDS011;52193;48.216;-1.698;2024-01-10T06:37:06;31.13;;;28.63;;
16862;SDS011;52193;48.216;-1.698;2024-01-10T06:39:33;29.65;;;27.25;;
16862;SDS011;52193;48.216;-1.698;2024-01-10T06:42:00;30.63;;;28.05;;
16862;SDS011;52193;48.216;-1.698;2024-01-10T06:44:30;31.23;;;28.63;;
16862;SDS011;52193;48.216;-1.698;2024-01-10T06:46:57;33.17;;;30.20;;
16862;SDS011;52193;48.216;-1.698;2024-01-10T06:49:23;30.55;;;28.08;;
16862;SDS011;52193;48.216;-1.698;2024-01-10T06:51:52;32.28;;;29.48;;
16862;SDS011;52193;48.216;-1.698;2024-01-10T06:54:19;31.83;;;29.13;;
16862;SDS011;52193;48.216;-1.698;2024-01-10T06:56:46;31.60;;;28.90;;
16862;SDS011;52193;48.216;-1.698;2024-01-10T06:59:13;31.10;;;28.40;;
16862;SDS011;52193;48.216;-1.698;2024-01-10T07:01:41;32.53;;;29.67;;
16862;SDS011;52193;48.216;-1.698;2024-01-10T07:04:08;32.42;;;29.63;;
16862;SDS011;52193;48.216;-1.698;2024-01-10T07:06:34;32.10;;;29.33;;
16862;SDS011;52193;48.216;-1.698;2024-01-10T07:09:01;32.45;;;29.45;;
16862;SDS011;52193;48.216;-1.698;2024-01-10T07:11:30;33.42;;;30.27;;
16862;SDS011;52193;48.216;-1.698;2024-01-10T07:13:57;31.40;;;28.70;;
16862;SDS011;52193;48.216;-1.698;2024-01-10T07:16:24;32.70;;;29.75;;
16862;SDS011;52193;48.216;-1.698;2024-01-10T07:18:53;31.83;;;29.13;;
16862;SDS011;52193;48.216;-1.698;2024-01-10T07:21:19;33.45;;;30.55;;
16862;SDS011;52193;48.216;-1.698;2024-01-10T07:23:46;31.75;;;29.10;;
16862;SDS011;52193;48.216;-1.698;2024-01-10T07:26:14;32.85;;;29.95;;
16862;SDS011;52193;48.216;-1.698;2024-01-10T07:28:41;33.80;;;30.80;;
16862;SDS011;52193;48.216;-1.698;2024-01-10T07:31:08;33.22;;;30.30;;
16862;SDS011;52193;48.216;-1.698;2024-01-10T07:33:37;34.20;;;31.08;;
16862;SDS011;52193;48.216;-1.698;2024-01-10T07:36:06;33.85;;;30.88;;
16862;SDS011;52193;48.216;-1.698;2024-01-10T07:38:33;33.65;;;30.55;;
16862;SDS011;52193;48.216;-1.698;2024-01-10T07:41:00;34.28;;;31.08;;
16862;SDS011;52193;48.216;-1.698;2024-01-10T07:43:27;33.60;;;30.65;;
16862;SDS011;52193;48.216;-1.698;2024-01-10T07:45:54;34.47;;;31.38;;
16862;SDS011;52193;48.216;-1.698;2024-01-10T07:48:21;34.42;;;31.27;;
16862;SDS011;52193;48.216;-1.698;2024-01-10T07:50:48;35.60;;;32.30;;
16862;SDS011;52193;48.216;-1.698;2024-01-10T07:53:16;34.95;;;31.58;;
16862;SDS011;52193;48.216;-1.698;2024-01-10T07:55:43;34.63;;;31.50;;
16862;SDS011;52193;48.216;-1.698;2024-01-10T07:58:10;33.80;;;30.73;;
16862;SDS011;52193;48.216;-1.698;2024-01-10T08:00:37;33.90;;;30.73;;
16862;SDS011;52193;48.216;-1.698;2024-01-10T08:03:04;33.63;;;30.75;;
16862;SDS011;52193;48.216;-1.698;2024-01-10T08:05:31;33.58;;;30.58;;
16862;SDS011;52193;48.216;-1.698;2024-01-10T08:07:58;33.53;;;30.48;;
16862;SDS011;52193;48.216;-1.698;2024-01-10T08:10:27;34.20;;;31.15;;
16862;SDS011;52193;48.216;-1.698;2024-01-10T08:12:53;33.53;;;30.52;;
16862;SDS011;52193;48.216;-1.698;2024-01-10T08:15:21;33.35;;;30.45;;
16862;SDS011;52193;48.216;-1.698;2024-01-10T08:17:48;34.25;;;31.25;;
16862;SDS011;52193;48.216;-1.698;2024-01-10T08:20:15;33.55;;;30.75;;
16862;SDS011;52193;48.216;-1.698;2024-01-10T08:22:45;35.60;;;32.40;;
16862;SDS011;52193;48.216;-1.698;2024-01-10T08:25:13;33.10;;;30.15;;
16862;SDS011;52193;48.216;-1.698;2024-01-10T08:27:45;35.35;;;32.30;;
16862;SDS011;52193;48.216;-1.698;2024-01-10T08:30:12;34.92;;;31.88;;
16862;SDS011;52193;48.216;-1.698;2024-01-10T08:32:39;35.33;;;32.17;;
16862;SDS011;52193;48.216;-1.698;2024-01-10T08:35:06;34.30;;;31.30;;
16862;SDS011;52193;48.216;-1.698;2024-01-10T08:37:34;35.97;;;32.78;;
16862;SDS011;52193;48.216;-1.698;2024-01-10T08:40:00;35.35;;;32.35;;
16862;SDS011;52193;48.216;-1.698;2024-01-10T08:42:32;36.22;;;32.88;;
16862;SDS011;52193;48.216;-1.698;2024-01-10T08:45:01;35.20;;;32.00;;
16862;SDS011;52193;48.216;-1.698;2024-01-10T08:47:27;35.85;;;32.65;;
16862;SDS011;52193;48.216;-1.698;2024-01-10T08:49:57;35.15;;;32.15;;
16862;SDS011;52193;48.216;-1.698;2024-01-10T08:52:24;34.83;;;31.67;;
16862;SDS011;52193;48.216;-1.698;2024-01-10T08:54:51;34.95;;;31.73;;
16862;SDS011;52193;48.216;-1.698;2024-01-10T08:57:18;35.63;;;32.22;;
16862;SDS011;52193;48.216;-1.698;2024-01-10T08:59:45;34.35;;;31.33;;
16862;SDS011;52193;48.216;-1.698;2024-01-10T09:02:13;34.85;;;31.88;;
16862;SDS011;52193;48.216;-1.698;2024-01-10T09:04:40;35.88;;;32.35;;
16862;SDS011;52193;48.216;-1.698;2024-01-10T09:07:07;36.15;;;32.72;;
16862;SDS011;52193;48.216;-1.698;2024-01-10T09:09:34;37.20;;;33.65;;
16862;SDS011;52193;48.216;-1.698;2024-01-10T09:12:01;36.90;;;33.38;;
16862;SDS011;52193;48.216;-1.698;2024-01-10T09:14:28;34.90;;;31.52;;
16862;SDS011;52193;48.216;-1.698;2024-01-10T09:16:55;36.55;;;33.05;;
16862;SDS011;52193;48.216;-1.698;2024-01-10T09:19:25;35.67;;;32.47;;
16862;SDS011;52193;48.216;-1.698;2024-01-10T09:21:52;35.72;;;32.28;;
16862;SDS011;52193;48.216;-1.698;2024-01-10T09:24:19;35.90;;;32.72;;
16862;SDS011;52193;48.216;-1.698;2024-01-10T09:26:46;37.80;;;34.45;;
16862;SDS011;52193;48.216;-1.698;2024-01-10T09:29:13;36.38;;;32.88;;
16862;SDS011;52193;48.216;-1.698;2024-01-10T09:31:40;37.55;;;34.10;;
16862;SDS011;52193;48.216;-1.698;2024-01-10T09:34:08;36.55;;;33.25;;
16862;SDS011;52193;48.216;-1.698;2024-01-10T09:36:37;35.80;;;32.63;;
16862;SDS011;52193;48.216;-1.698;2024-01-10T09:39:03;36.05;;;32.95;;
16862;SDS011;52193;48.216;-1.698;2024-01-10T09:41:36;36.53;;;33.42;;
16862;SDS011;52193;48.216;-1.698;2024-01-10T09:44:10;36.40;;;33.25;;
16862;SDS011;52193;48.216;-1.698;2024-01-10T09:46:38;37.50;;;34.03;;
16862;SDS011;52193;48.216;-1.698;2024-01-10T09:49:06;37.83;;;34.63;;
16862;SDS011;52193;48.216;-1.698;2024-01-10T09:51:34;37.25;;;33.80;;
16862;SDS011;52193;48.216;-1.698;2024-01-10T09:54:03;36.53;;;33.33;;
16862;SDS011;52193;48.216;-1.698;2024-01-10T09:56:30;36.55;;;33.20;;
16862;SDS011;52193;48.216;-1.698;2024-01-10T09:58:58;36.83;;;33.53;;
16862;SDS011;52193;48.216;-1.698;2024-01-10T10:01:27;37.10;;;33.83;;
16862;SDS011;52193;48.216;-1.698;2024-01-10T10:03:54;36.95;;;33.50;;
16862;SDS011;52193;48.216;-1.698;2024-01-10T10:06:23;37.42;;;33.97;;
16862;SDS011;52193;48.216;-1.698;2024-01-10T10:08:50;37.97;;;34.38;;
16862;SDS011;52193;48.216;-1.698;2024-01-10T10:11:19;36.22;;;33.03;;
16862;SDS011;52193;48.216;-1.698;2024-01-10T10:13:46;36.17;;;32.97;;
16862;SDS011;52193;48.216;-1.698;2024-01-10T10:16:13;36.05;;;32.90;;
16862;SDS011;52193;48.216;-1.698;2024-01-10T10:18:39;37.38;;;34.03;;
16862;SDS011;52193;48.216;-1.698;2024-01-10T10:21:09;37.58;;;34.17;;
16862;SDS011;52193;48.216;-1.698;2024-01-10T10:23:36;37.15;;;33.58;;
16862;SDS011;52193;48.216;-1.698;2024-01-10T10:26:10;37.40;;;34.00;;
16862;SDS011;52193;48.216;-1.698;2024-01-10T10:28:41;37.00;;;33.47;;
16862;SDS011;52193;48.216;-1.698;2024-01-10T10:31:08;37.95;;;34.35;;
16862;SDS011;52193;48.216;-1.698;2024-01-10T10:33:36;37.80;;;34.20;;
16862;SDS011;52193;48.216;-1.698;2024-01-10T10:36:03;46.58;;;42.40;;
16862;SDS011;52193;48.216;-1.698;2024-01-10T10:38:30;39.13;;;35.45;;
16862;SDS011;52193;48.216;-1.698;2024-01-10T10:40:57;39.20;;;35.38;;
16862;SDS011;52193;48.216;-1.698;2024-01-10T10:43:25;39.35;;;35.78;;
16862;SDS011;52193;48.216;-1.698;2024-01-10T10:45:57;39.00;;;35.30;;
16862;SDS011;52193;48.216;-1.698;2024-01-10T10:48:25;37.17;;;33.78;;
16862;SDS011;52193;48.216;-1.698;2024-01-10T10:50:54;37.33;;;34.03;;
16862;SDS011;52193;48.216;-1.698;2024-01-10T10:53:25;37.90;;;34.33;;
16862;SDS011;52193;48.216;-1.698;2024-01-10T10:55:55;37.67;;;34.30;;
16862;SDS011;52193;48.216;-1.698;2024-01-10T10:58:25;35.95;;;32.55;;
16862;SDS011;52193;48.216;-1.698;2024-01-10T11:00:53;37.05;;;33.45;;
16862;SDS011;52193;48.216;-1.698;2024-01-10T11:03:22;37.55;;;34.03;;
16862;SDS011;52193;48.216;-1.698;2024-01-10T11:05:51;38.55;;;35.05;;
16862;SDS011;52193;48.216;-1.698;2024-01-10T11:08:19;38.65;;;34.97;;
16862;SDS011;52193;48.216;-1.698;2024-01-10T11:10:48;39.15;;;35.35;;
16862;SDS011;52193;48.216;-1.698;2024-01-10T11:13:22;38.97;;;35.42;;
16862;SDS011;52193;48.216;-1.698;2024-01-10T11:15:59;39.30;;;35.47;;
16862;SDS011;52193;48.216;-1.698;2024-01-10T11:19:02;40.08;;;36.08;;
16862;SDS011;52193;48.216;-1.698;2024-01-10T11:21:56;38.72;;;35.22;;
16862;SDS011;52193;48.216;-1.698;2024-01-10T11:24:35;39.63;;;35.85;;
16862;SDS011;52193;48.216;-1.698;2024-01-10T11:27:06;38.88;;;35.35;;
16862;SDS011;52193;48.216;-1.698;2024-01-10T11:29:36;40.08;;;36.25;;
16862;SDS011;52193;48.216;-1.698;2024-01-10T11:32:04;38.33;;;34.75;;
16862;SDS011;52193;48.216;-1.698;2024-01-10T11:34:36;38.45;;;34.83;;
16862;SDS011;52193;48.216;-1.698;2024-01-10T11:37:09;38.95;;;35.25;;
16862;SDS011;52193;48.216;-1.698;2024-01-10T11:39:36;38.83;;;34.65;;
16862;SDS011;52193;48.216;-1.698;2024-01-10T11:42:04;38.25;;;34.60;;
16862;SDS011;52193;48.216;-1.698;2024-01-10T11:44:31;39.05;;;35.45;;
16862;SDS011;52193;48.216;-1.698;2024-01-10T11:46:58;39.03;;;35.20;;
16862;SDS011;52193;48.216;-1.698;2024-01-10T11:49:26;39.63;;;35.83;;
16862;SDS011;52193;48.216;-1.698;2024-01-10T11:51:55;38.40;;;34.55;;
16862;SDS011;52193;48.216;-1.698;2024-01-10T11:54:35;38.10;;;34.50;;
16862;SDS011;52193;48.216;-1.698;2024-01-10T11:57:02;38.47;;;34.88;;
16862;SDS011;52193;48.216;-1.698;2024-01-10T11:59:33;38.72;;;35.13;;
16862;SDS011;52193;48.216;-1.698;2024-01-10T12:02:01;39.42;;;35.90;;
16862;SDS011;52193;48.216;-1.698;2024-01-10T12:04:28;39.05;;;35.50;;
16862;SDS011;52193;48.216;-1.698;2024-01-10T12:06:59;39.38;;;35.60;;
16862;SDS011;52193;48.216;-1.698;2024-01-10T12:09:28;39.55;;;35.70;;
16862;SDS011;52193;48.216;-1.698;2024-01-10T12:11:55;40.15;;;36.08;;
16862;SDS011;52193;48.216;-1.698;2024-01-10T12:14:22;40.75;;;36.80;;
16862;SDS011;52193;48.216;-1.698;2024-01-10T12:16:50;38.75;;;35.05;;
16862;SDS011;52193;48.216;-1.698;2024-01-10T12:19:18;40.40;;;36.42;;
16862;SDS011;52193;48.216;-1.698;2024-01-10T12:21:45;42.58;;;38.58;;
16862;SDS011;52193;48.216;-1.698;2024-01-10T12:24:14;41.35;;;37.47;;
16862;SDS011;52193;48.216;-1.698;2024-01-10T12:26:44;42.13;;;38.03;;
16862;SDS011;52193;48.216;-1.698;2024-01-10T12:29:12;40.38;;;36.53;;
16862;SDS011;52193;48.216;-1.698;2024-01-10T12:31:39;39.88;;;36.08;;
16862;SDS011;52193;48.216;-1.698;2024-01-10T12:34:07;40.03;;;36.25;;
16862;SDS011;52193;48.216;-1.698;2024-01-10T12:36:35;40.22;;;36.35;;
16862;SDS011;52193;48.216;-1.698;2024-01-10T12:39:02;40.53;;;36.50;;
16862;SDS011;52193;48.216;-1.698;2024-01-10T12:41:33;40.40;;;36.08;;
16862;SDS011;52193;48.216;-1.698;2024-01-10T12:44:01;39.92;;;36.22;;
16862;SDS011;52193;48.216;-1.698;2024-01-10T12:46:30;40.85;;;36.65;;
16862;SDS011;52193;48.216;-1.698;2024-01-10T12:48:58;42.15;;;37.83;;
16862;SDS011;52193;48.216;-1.698;2024-01-10T12:51:27;42.33;;;38.15;;
16862;SDS011;52193;48.216;-1.698;2024-01-10T12:53:55;39.90;;;36.00;;
16862;SDS011;52193;48.216;-1.698;2024-01-10T12:56:23;41.05;;;37.17;;
16862;SDS011;52193;48.216;-1.698;2024-01-10T12:58:52;39.72;;;36.03;;
16862;SDS011;52193;48.216;-1.698;2024-01-10T13:01:19;39.95;;;36.17;;
16862;SDS011;52193;48.216;-1.698;2024-01-10T13:03:46;40.53;;;36.67;;
16862;SDS011;52193;48.216;-1.698;2024-01-10T13:06:14;40.33;;;36.35;;
16862;SDS011;52193;48.216;-1.698;2024-01-10T13:08:42;40.85;;;36.95;;
16862;SDS011;52193;48.216;-1.698;2024-01-10T13:11:09;40.55;;;36.85;;
16862;SDS011;52193;48.216;-1.698;2024-01-10T13:13:36;40.53;;;36.58;;
16862;SDS011;52193;48.216;-1.698;2024-01-10T13:16:04;39.80;;;36.10;;
16862;SDS011;52193;48.216;-1.698;2024-01-10T13:18:32;39.15;;;35.55;;
16862;SDS011;52193;48.216;-1.698;2024-01-10T13:20:58;40.33;;;36.47;;
16862;SDS011;52193;48.216;-1.698;2024-01-10T13:23:25;38.63;;;35.03;;
16862;SDS011;52193;48.216;-1.698;2024-01-10T13:25:52;38.35;;;34.85;;
16862;SDS011;52193;48.216;-1.698;2024-01-10T13:28:19;39.08;;;35.45;;
16862;SDS011;52193;48.216;-1.698;2024-01-10T13:30:46;38.60;;;35.03;;
16862;SDS011;52193;48.216;-1.698;2024-01-10T13:33:14;39.38;;;35.67;;
16862;SDS011;52193;48.216;-1.698;2024-01-10T13:35:41;38.92;;;35.13;;
16862;SDS011;52193;48.216;-1.698;2024-01-10T13:38:08;38.42;;;34.88;;
16862;SDS011;52193;48.216;-1.698;2024-01-10T13:40:35;40.10;;;36.15;;
16862;SDS011;52193;48.216;-1.698;2024-01-10T13:43:04;38.53;;;34.95;;
16862;SDS011;52193;48.216;-1.698;2024-01-10T13:45:30;40.83;;;36.72;;
16862;SDS011;52193;48.216;-1.698;2024-01-10T13:47:57;39.10;;;35.25;;
16862;SDS011;52193;48.216;-1.698;2024-01-10T13:50:26;38.40;;;34.53;;
16862;SDS011;52193;48.216;-1.698;2024-01-10T13:52:55;39.65;;;36.05;;
16862;SDS011;52193;48.216;-1.698;2024-01-10T13:55:22;36.95;;;33.38;;
16862;SDS011;52193;48.216;-1.698;2024-01-10T13:57:49;36.38;;;33.17;;
16862;SDS011;52193;48.216;-1.698;2024-01-10T14:00:18;37.85;;;34.38;;
16862;SDS011;52193;48.216;-1.698;2024-01-10T14:02:46;36.80;;;33.42;;
16862;SDS011;52193;48.216;-1.698;2024-01-10T14:05:13;37.05;;;33.67;;
16862;SDS011;52193;48.216;-1.698;2024-01-10T14:07:41;36.75;;;33.30;;
16862;SDS011;52193;48.216;-1.698;2024-01-10T14:10:11;37.33;;;33.63;;
16862;SDS011;52193;48.216;-1.698;2024-01-10T14:12:38;36.30;;;33.00;;